Time;durP1;ratioP1;P1;durP2;ratioP2;P2;SDS_P1;SDS_P2;PMS_P1;PMS_P2;Temp;Humidity;BMP_temperature;BMP_pressure;BME280_temperature;BME280_humidity;BME280_pressure;Samples;Min_cycle;Max_cycle;Signal;HPM_P1;HPM_P2
2023/12/27 00:02:22;;;;;;;;;;;;;;;9.93;85.29;101243.91;7295977;19;20420;-67
2023/12/27 00:04:49;;;;;;;;;;;;;;;9.93;84.94;101233.41;7301088;19;19915;-66
2023/12/27 00:07:16;;;;;;;;;;;;;;;9.95;86.08;101227.06;7298712;19;19923;-67
2023/12/27 00:09:42;;;;;;;;;;;;;;;9.96;86.10;101233.13;7296244;19;19915;-66
2023/12/27 00:12:09;;;;;;;;;;;;;;;9.96;86.17;101231.31;7300933;19;20182;-66
2023/12/27 00:14:36;;;;;;;;;;;;;;;9.98;85.65;101229.41;7293720;19;19930;-67
2023/12/27 00:17:03;;;;;;;;;;;;;;;9.96;85.77;101219.97;7288110;19;19936;-67
2023/12/27 00:19:30;;;;;;;;;;;;;;;9.96;85.87;101212.91;7304602;19;19923;-68
2023/12/27 00:22:03;;;;;;;;;;;;;;;9.96;85.93;101204.19;7296209;19;19934;-68
2023/12/27 00:24:30;;;;;;;;;;;;;;;9.98;85.55;101191.75;7290705;19;19929;-67
2023/12/27 00:26:57;;;;;;;;;;;;;;;9.98;84.98;101200.47;7298392;19;19994;-67
2023/12/27 00:29:24;;;;;;;;;;;;;;;9.97;85.20;101192.72;7292754;19;19954;-67
2023/12/27 00:31:51;;;;;;;;;;;;;;;9.98;86.08;101194.38;7304907;19;20629;-67
2023/12/27 00:34:17;;;;;;;;;;;;;;;9.98;85.95;101197.84;7296757;19;19919;-67
2023/12/27 00:36:44;;;;;;;;;;;;;;;9.98;85.71;101189.97;7300880;19;20027;-67
2023/12/27 00:39:11;;;;;;;;;;;;;;;10.01;85.32;101199.34;7309427;19;22479;-67
2023/12/27 00:41:38;;;;;;;;;;;;;;;9.99;85.88;101191.63;7293162;19;19969;-67
2023/12/27 00:44:05;;;;;;;;;;;;;;;9.96;85.64;101191.91;7297489;19;19969;-66
2023/12/27 00:46:32;;;;;;;;;;;;;;;9.94;85.82;101183.34;7281177;19;21068;-66
2023/12/27 00:48:59;;;;;;;;;;;;;;;9.96;85.76;101184.00;7303172;19;19923;-67
2023/12/27 00:51:26;;;;;;;;;;;;;;;9.98;85.71;101176.00;7300244;19;19914;-66
2023/12/27 00:53:53;;;;;;;;;;;;;;;10.03;87.06;101176.41;7292799;19;19911;-67
2023/12/27 00:56:20;;;;;;;;;;;;;;;10.03;86.56;101176.41;7293866;19;19930;-66
2023/12/27 00:58:47;;;;;;;;;;;;;;;10.04;86.18;101167.53;7299425;19;19923;-67
2023/12/27 01:01:13;;;;;;;;;;;;;;;10.02;85.81;101161.59;7296191;19;19929;-70
2023/12/27 01:03:40;;;;;;;;;;;;;;;10.02;85.93;101162.44;7294394;19;19919;-66
2023/12/27 01:06:09;;;;;;;;;;;;;;;10.04;87.26;101160.50;7289421;19;20675;-67
2023/12/27 01:08:36;;;;;;;;;;;;;;;10.05;86.88;101148.19;7287838;19;20499;-67
2023/12/27 01:11:03;;;;;;;;;;;;;;;10.04;86.70;101151.78;7282483;19;20810;-66
2023/12/27 01:13:29;;;;;;;;;;;;;;;10.04;86.58;101146.53;7302870;19;19918;-66
2023/12/27 01:15:58;;;;;;;;;;;;;;;10.04;86.97;101146.53;7297083;19;19919;-67
2023/12/27 01:18:24;;;;;;;;;;;;;;;10.06;88.10;101142.75;7294645;19;20358;-67
2023/12/27 01:20:51;;;;;;;;;;;;;;;10.09;89.21;101144.28;7292391;19;19931;-67
2023/12/27 01:23:18;;;;;;;;;;;;;;;10.07;89.59;101140.97;7293880;19;19942;-67
2023/12/27 01:25:55;;;;;;;;;;;;;;;10.06;90.14;101140.13;7297110;19;20471;-68
2023/12/27 01:28:22;;;;;;;;;;;;;;;10.07;92.04;101127.81;7296513;19;19918;-66
2023/12/27 01:30:49;;;;;;;;;;;;;;;10.08;92.87;101116.34;7287275;19;20005;-66
2023/12/27 01:33:16;;;;;;;;;;;;;;;10.01;93.17;101107.34;7295447;19;20776;-68
2023/12/27 01:35:47;;;;;;;;;;;;;;;9.99;94.21;101107.53;7295050;19;21185;-67
2023/12/27 01:38:14;;;;;;;;;;;;;;;9.95;94.77;101106.16;7292483;19;19926;-67
2023/12/27 01:40:48;;;;;;;;;;;;;;;9.97;95.83;101098.94;7305049;19;19925;-66
2023/12/27 01:43:16;;;;;;;;;;;;;;;10.00;95.94;101095.22;7294837;19;19915;-67
2023/12/27 01:45:46;;;;;;;;;;;;;;;9.92;96.38;101088.03;7293917;19;20017;-67
2023/12/27 01:48:20;;;;;;;;;;;;;;;9.93;96.58;101088.84;7286331;19;19922;-66
2023/12/27 01:50:48;;;;;;;;;;;;;;;9.97;97.68;101090.22;7295334;19;20228;-67
2023/12/27 01:53:16;;;;;;;;;;;;;;;9.94;97.77;101082.63;7299519;19;20654;-68
2023/12/27 01:55:43;;;;;;;;;;;;;;;9.94;97.87;101070.31;7297115;19;19949;-67
2023/12/27 01:58:22;;;;;;;;;;;;;;;9.87;97.49;101062.16;7290455;19;20210;-66
2023/12/27 02:00:49;;;;;;;;;;;;;;;9.87;98.11;101054.28;7285179;19;20430;-68
2023/12/27 02:03:17;;;;;;;;;;;;;;;9.85;99.13;101047.53;7294087;19;19931;-66
2023/12/27 02:05:46;;;;;;;;;;;;;;;9.82;99.71;101040.75;7303932;19;19915;-67
2023/12/27 02:08:14;;;;;;;;;;;;;;;9.77;99.61;101034.25;7302751;19;20430;-68
2023/12/27 02:10:41;;;;;;;;;;;;;;;9.74;100.00;101037.19;7299662;19;21813;-66
2023/12/27 02:13:08;;;;;;;;;;;;;;;9.74;100.00;101029.28;7298309;19;20264;-66
2023/12/27 02:15:35;;;;;;;;;;;;;;;9.76;100.00;101027.34;7283821;19;19955;-68
2023/12/27 02:18:03;;;;;;;;;;;;;;;9.78;100.00;101023.59;7300396;19;19934;-68
2023/12/27 02:20:31;;;;;;;;;;;;;;;9.74;100.00;101017.00;7294899;19;19985;-67
2023/12/27 02:23:00;;;;;;;;;;;;;;;9.78;100.00;101007.84;7298349;19;19933;-68
2023/12/27 02:25:33;;;;;;;;;;;;;;;9.77;100.00;100997.47;7294854;19;19921;-67
2023/12/27 02:28:00;;;;;;;;;;;;;;;9.79;100.00;100993.75;7296675;19;19931;-68
2023/12/27 02:30:27;;;;;;;;;;;;;;;9.73;100.00;100996.94;7286384;19;20425;-68
2023/12/27 02:32:53;;;;;;;;;;;;;;;9.77;100.00;100981.69;7297708;19;19923;-66
2023/12/27 02:35:20;;;;;;;;;;;;;;;9.78;100.00;100978.09;7290973;19;20526;-66
2023/12/27 02:37:48;;;;;;;;;;;;;;;9.75;100.00;100967.91;7291883;19;19970;-67
2023/12/27 02:40:15;;;;;;;;;;;;;;;9.80;100.00;100963.03;7295078;19;19923;-67
2023/12/27 02:42:41;;;;;;;;;;;;;;;9.76;100.00;100954.59;7300056;19;20908;-66
2023/12/27 02:45:08;;;;;;;;;;;;;;;9.78;100.00;100943.94;7290267;19;20021;-66
2023/12/27 02:47:35;;;;;;;;;;;;;;;9.76;100.00;100941.47;7284754;19;20378;-66
2023/12/27 02:50:03;;;;;;;;;;;;;;;9.74;100.00;100930.28;7300066;19;19947;-66
2023/12/27 02:52:30;;;;;;;;;;;;;;;9.77;100.00;100924.72;7315687;19;19925;-67
2023/12/27 02:54:56;;;;;;;;;;;;;;;9.80;100.00;100924.41;7300792;19;19962;-67
2023/12/27 02:57:23;;;;;;;;;;;;;;;9.80;100.00;100913.91;7299106;19;19914;-66
2023/12/27 02:59:50;;;;;;;;;;;;;;;9.79;100.00;100912.28;7288254;19;19919;-67
2023/12/27 03:02:17;;;;;;;;;;;;;;;9.85;100.00;100903.00;7299832;19;19927;-68
2023/12/27 03:04:44;;;;;;;;;;;;;;;9.83;100.00;100890.00;7304289;19;19919;-67
2023/12/27 03:07:11;;;;;;;;;;;;;;;9.85;100.00;100892.47;7283044;19;19922;-67
2023/12/27 03:09:38;;;;;;;;;;;;;;;9.88;100.00;100885.13;7299845;19;19915;-68
2023/12/27 03:12:05;;;;;;;;;;;;;;;9.93;100.00;100897.00;7292196;19;19915;-68
2023/12/27 03:14:32;;;;;;;;;;;;;;;9.92;100.00;100877.75;7289514;19;20593;-67
2023/12/27 03:16:59;;;;;;;;;;;;;;;9.93;100.00;100870.72;7301367;19;20285;-67
2023/12/27 03:19:26;;;;;;;;;;;;;;;9.90;100.00;100869.22;7296620;19;20349;-67
2023/12/27 03:21:53;;;;;;;;;;;;;;;9.96;100.00;100873.03;7286532;19;19914;-67
2023/12/27 03:24:20;;;;;;;;;;;;;;;9.96;100.00;100871.22;7288572;19;20871;-67
2023/12/27 03:26:47;;;;;;;;;;;;;;;9.97;100.00;100859.75;7290801;19;19928;-67
2023/12/27 03:29:14;;;;;;;;;;;;;;;9.97;100.00;100849.22;7290958;19;20324;-67
2023/12/27 03:31:40;;;;;;;;;;;;;;;10.01;100.00;100841.88;7309449;19;19923;-67
2023/12/27 03:34:07;;;;;;;;;;;;;;;10.04;100.00;100829.28;7292882;19;19949;-66
2023/12/27 03:36:34;;;;;;;;;;;;;;;10.06;100.00;100829.09;7297779;19;20287;-67
2023/12/27 03:39:02;;;;;;;;;;;;;;;10.08;100.00;100821.91;7294534;19;20850;-68
2023/12/27 03:41:29;;;;;;;;;;;;;;;10.07;100.00;100807.94;7288500;19;19926;-67
2023/12/27 03:43:59;;;;;;;;;;;;;;;10.09;100.00;100802.53;7286746;19;19934;-67
2023/12/27 03:46:26;;;;;;;;;;;;;;;10.10;100.00;100788.44;7288652;19;21731;-67
2023/12/27 03:48:53;;;;;;;;;;;;;;;10.11;100.00;100797.94;7278009;19;19925;-66
2023/12/27 03:51:23;;;;;;;;;;;;;;;10.10;100.00;100785.78;7284199;19;19938;-67
2023/12/27 03:53:50;;;;;;;;;;;;;;;10.12;100.00;100784.66;7274861;19;20596;-66
2023/12/27 03:56:17;;;;;;;;;;;;;;;10.17;100.00;100778.97;7290141;19;19995;-70
2023/12/27 03:58:44;;;;;;;;;;;;;;;10.21;100.00;100791.66;7281575;19;20383;-68
2023/12/27 04:01:11;;;;;;;;;;;;;;;10.22;100.00;100781.97;7301187;19;20340;-66
2023/12/27 04:03:39;;;;;;;;;;;;;;;10.24;100.00;100782.66;7282648;19;19919;-67
2023/12/27 04:06:07;;;;;;;;;;;;;;;10.28;100.00;100774.31;7297154;19;19982;-67
2023/12/27 04:08:34;;;;;;;;;;;;;;;10.32;100.00;100774.81;7299685;19;20333;-66
2023/12/27 04:11:01;;;;;;;;;;;;;;;10.36;100.00;100756.97;7286904;19;19926;-67
2023/12/27 04:13:28;;;;;;;;;;;;;;;10.35;100.00;100756.13;7289123;19;19919;-67
2023/12/27 04:15:55;;;;;;;;;;;;;;;10.35;100.00;100752.66;7292134;19;20773;-67
2023/12/27 04:18:22;;;;;;;;;;;;;;;10.37;100.00;100750.69;7274737;19;19922;-67
2023/12/27 04:20:49;;;;;;;;;;;;;;;10.43;100.00;100750.09;7291800;19;21954;-66
2023/12/27 04:23:16;;;;;;;;;;;;;;;10.42;100.00;100756.31;7278606;19;19914;-67
2023/12/27 04:25:50;;;;;;;;;;;;;;;10.43;100.00;100761.44;7293854;19;20301;-66
2023/12/27 04:28:18;;;;;;;;;;;;;;;10.47;100.00;100761.94;7299490;19;20870;-66
2023/12/27 04:30:45;;;;;;;;;;;;;;;10.48;100.00;100761.81;7285930;19;20656;-66
2023/12/27 04:33:11;;;;;;;;;;;;;;;10.50;100.00;100761.66;7296136;19;20392;-66
2023/12/27 04:35:38;;;;;;;;;;;;;;;10.51;100.00;100758.88;7297079;19;20218;-67
2023/12/27 04:38:06;;;;;;;;;;;;;;;10.48;100.00;100753.06;7303252;19;20007;-67
2023/12/27 04:40:33;;;;;;;;;;;;;;;10.53;100.00;100741.13;7295291;19;19927;-67
2023/12/27 04:42:59;;;;;;;;;;;;;;;10.59;100.00;100731.78;7295198;19;19919;-67
2023/12/27 04:45:26;;;;;;;;;;;;;;;10.63;100.00;100733.13;7295242;19;19919;-66
2023/12/27 04:47:53;;;;;;;;;;;;;;;10.60;100.00;100725.53;7289487;19;19952;-66
2023/12/27 04:50:20;;;;;;;;;;;;;;;10.61;100.00;100720.13;7290676;19;19914;-68
2023/12/27 04:52:47;;;;;;;;;;;;;;;10.66;100.00;100712.59;7295052;19;19922;-68
2023/12/27 04:55:14;;;;;;;;;;;;;;;10.70;100.00;100710.47;7300357;19;19930;-67
2023/12/27 04:57:41;;;;;;;;;;;;;;;10.71;100.00;100705.06;7304068;19;19915;-68
2023/12/27 05:00:08;;;;;;;;;;;;;;;10.71;100.00;100694.53;7297016;19;19948;-67
2023/12/27 05:02:35;;;;;;;;;;;;;;;10.74;100.00;100690.75;7295987;19;19959;-67
2023/12/27 05:05:02;;;;;;;;;;;;;;;10.80;100.00;100678.78;7304441;19;19922;-68
2023/12/27 05:07:29;;;;;;;;;;;;;;;10.83;100.00;100681.09;7312599;19;20028;-69
2023/12/27 05:09:55;;;;;;;;;;;;;;;10.86;100.00;100676.34;7298943;19;20019;-67
2023/12/27 05:12:30;;;;;;;;;;;;;;;10.87;100.00;100664.81;7305011;19;20224;-67
2023/12/27 05:14:59;;;;;;;;;;;;;;;10.90;100.00;100667.16;7289469;19;20035;-66
2023/12/27 05:17:26;;;;;;;;;;;;;;;10.94;100.00;100660.56;7287958;19;20229;-67
2023/12/27 05:19:53;;;;;;;;;;;;;;;10.94;100.00;100663.19;7292139;19;19990;-67
2023/12/27 05:22:20;;;;;;;;;;;;;;;10.97;100.00;100665.50;7303007;19;19919;-66
2023/12/27 05:24:47;;;;;;;;;;;;;;;10.98;100.00;100668.97;7308803;19;20074;-67
2023/12/27 05:27:14;;;;;;;;;;;;;;;11.02;100.00;100667.69;7315439;19;20227;-68
2023/12/27 05:29:41;;;;;;;;;;;;;;;11.05;100.00;100667.34;7296072;19;20796;-66
2023/12/27 05:32:08;;;;;;;;;;;;;;;11.06;100.00;100663.75;7293222;19;19915;-66
2023/12/27 05:34:35;;;;;;;;;;;;;;;11.08;100.00;100664.38;7284439;19;20919;-66
2023/12/27 05:37:02;;;;;;;;;;;;;;;11.09;100.00;100672.13;7295393;19;19922;-66
2023/12/27 05:39:29;;;;;;;;;;;;;;;11.13;100.00;100662.09;7289137;19;20787;-66
2023/12/27 05:41:55;;;;;;;;;;;;;;;11.15;100.00;100641.72;7296942;19;20011;-67
2023/12/27 05:44:22;;;;;;;;;;;;;;;11.14;100.00;100625.09;7290745;19;19923;-66
2023/12/27 05:46:49;;;;;;;;;;;;;;;11.17;100.00;100623.94;7296507;19;19934;-66
2023/12/27 05:49:16;;;;;;;;;;;;;;;11.19;100.00;100629.88;7300180;19;19919;-67
2023/12/27 05:51:43;;;;;;;;;;;;;;;11.23;100.00;100628.56;7291577;19;20002;-68
2023/12/27 05:54:10;;;;;;;;;;;;;;;11.25;100.00;100631.84;7297519;19;20138;-68
2023/12/27 05:56:37;;;;;;;;;;;;;;;11.30;100.00;100607.66;7292567;19;20711;-66
2023/12/27 05:59:04;;;;;;;;;;;;;;;11.31;100.00;100607.50;7287800;19;20339;-66
2023/12/27 06:01:31;;;;;;;;;;;;;;;11.35;100.00;100600.91;7306265;19;19926;-67
2023/12/27 06:04:03;;;;;;;;;;;;;;;11.37;100.00;100580.53;7286219;19;19923;-68
2023/12/27 06:06:30;;;;;;;;;;;;;;;11.38;100.00;100576.88;7287791;19;21823;-65
2023/12/27 06:08:57;;;;;;;;;;;;;;;11.41;100.00;100573.09;7294953;19;19926;-66
2023/12/27 06:11:24;;;;;;;;;;;;;;;11.44;100.00;100570.13;7289772;19;20212;-67
2023/12/27 06:13:51;;;;;;;;;;;;;;;11.45;100.00;100575.25;7291271;19;19915;-66
2023/12/27 06:16:17;;;;;;;;;;;;;;;11.49;100.00;100578.34;7300851;19;19994;-66
2023/12/27 06:18:44;;;;;;;;;;;;;;;11.49;100.00;100568.66;7300812;19;19926;-68
2023/12/27 06:21:11;;;;;;;;;;;;;;;11.51;100.00;100561.41;7287324;19;20243;-67
2023/12/27 06:23:48;;;;;;;;;;;;;;;11.56;100.00;100550.38;7302269;19;20528;-66
2023/12/27 06:26:14;;;;;;;;;;;;;;;11.58;100.00;100553.66;7296785;19;19914;-67
2023/12/27 06:28:42;;;;;;;;;;;;;;;11.60;100.00;100541.16;7297710;19;20380;-66
2023/12/27 06:31:10;;;;;;;;;;;;;;;11.63;100.00;100535.53;7288637;19;20039;-66
2023/12/27 06:33:43;;;;;;;;;;;;;;;11.67;100.00;100533.41;7291129;19;19930;-68
2023/12/27 06:36:10;;;;;;;;;;;;;;;11.69;100.00;100532.22;7298499;19;20474;-66
2023/12/27 06:38:37;;;;;;;;;;;;;;;11.73;100.00;100538.03;7300357;19;20285;-66
2023/12/27 06:41:04;;;;;;;;;;;;;;;11.74;100.00;100519.41;7293936;19;20454;-66
2023/12/27 06:43:31;;;;;;;;;;;;;;;11.71;100.00;100511.81;7295416;19;19923;-67
2023/12/27 06:45:59;;;;;;;;;;;;;;;11.75;100.00;100517.59;7294704;19;20303;-65
2023/12/27 06:48:26;;;;;;;;;;;;;;;11.78;100.00;100507.56;7287587;19;19933;-66
2023/12/27 06:50:53;;;;;;;;;;;;;;;11.82;100.00;100514.13;7285879;19;19937;-67
2023/12/27 06:53:20;;;;;;;;;;;;;;;11.84;100.00;100511.31;7282482;19;19959;-67
2023/12/27 06:55:47;;;;;;;;;;;;;;;11.85;100.00;100513.78;7290760;19;20335;-66
2023/12/27 06:58:14;;;;;;;;;;;;;;;11.89;100.00;100501.91;7296250;19;19915;-67
2023/12/27 07:00:41;;;;;;;;;;;;;;;11.94;100.00;100493.47;7311506;19;20643;-68
2023/12/27 07:03:08;;;;;;;;;;;;;;;11.94;100.00;100493.47;7314471;19;19955;-68
2023/12/27 07:05:36;;;;;;;;;;;;;;;11.98;100.00;100500.09;7295794;19;20367;-66
2023/12/27 07:08:04;;;;;;;;;;;;;;;11.98;100.00;100495.63;7297711;19;19955;-67
2023/12/27 07:10:30;;;;;;;;;;;;;;;11.98;100.00;100490.38;7297173;19;21940;-66
2023/12/27 07:12:58;;;;;;;;;;;;;;;11.99;100.00;100468.25;7310590;19;19918;-67
2023/12/27 07:15:24;;;;;;;;;;;;;;;12.01;100.00;100462.81;7302010;19;19919;-67
2023/12/27 07:17:53;;;;;;;;;;;;;;;12.02;100.00;100456.56;7294108;19;20214;-67
2023/12/27 07:20:21;;;;;;;;;;;;;;;12.04;100.00;100454.56;7298378;19;19919;-66
2023/12/27 07:22:49;;;;;;;;;;;;;;;12.06;100.00;100478.94;7289075;19;20274;-66
2023/12/27 07:25:15;;;;;;;;;;;;;;;12.07;100.00;100467.41;7298046;19;19998;-66
2023/12/27 07:27:43;;;;;;;;;;;;;;;12.11;100.00;100468.72;7290978;19;20600;-67
2023/12/27 07:30:10;;;;;;;;;;;;;;;12.13;100.00;100465.91;7278466;19;20715;-68
2023/12/27 07:32:38;;;;;;;;;;;;;;;12.13;100.00;100458.81;7293974;19;19919;-66
2023/12/27 07:35:05;;;;;;;;;;;;;;;12.13;100.00;100447.44;7302213;19;19919;-66
2023/12/27 07:37:32;;;;;;;;;;;;;;;12.15;100.00;100450.72;7299450;19;19923;-67
2023/12/27 07:39:59;;;;;;;;;;;;;;;12.15;100.00;100446.25;7283418;19;21539;-66
2023/12/27 07:42:26;;;;;;;;;;;;;;;12.17;100.00;100459.28;7286013;19;19914;-66
2023/12/27 07:44:53;;;;;;;;;;;;;;;12.19;100.00;100455.47;7288743;19;20302;-67
2023/12/27 07:47:20;;;;;;;;;;;;;;;12.20;100.00;100440.47;7275091;19;19930;-67
2023/12/27 07:49:47;;;;;;;;;;;;;;;12.19;100.00;100415.91;7291197;19;19918;-68
2023/12/27 07:52:14;;;;;;;;;;;;;;;12.21;100.00;100424.47;7294612;19;20011;-66
2023/12/27 07:54:41;;;;;;;;;;;;;;;12.19;100.00;100421.19;7284125;19;19926;-65
2023/12/27 07:57:08;;;;;;;;;;;;;;;12.19;100.00;100420.38;7285578;19;20294;-65
2023/12/27 07:59:36;;;;;;;;;;;;;;;12.20;100.00;100414.09;7290958;19;20496;-67
2023/12/27 08:02:04;;;;;;;;;;;;;;;12.20;100.00;100420.19;7295269;19;20623;-68
2023/12/27 08:04:34;;;;;;;;;;;;;;;12.20;100.00;100417.56;7304262;19;19942;-67
2023/12/27 08:07:00;;;;;;;;;;;;;;;12.18;100.00;100410.81;7301996;19;20711;-68
2023/12/27 08:09:29;;;;;;;;;;;;;;;12.17;100.00;100399.44;7292095;19;20385;-67
2023/12/27 08:11:56;;;;;;;;;;;;;;;12.22;100.00;100405.03;7302096;19;20353;-67
2023/12/27 08:14:22;;;;;;;;;;;;;;;12.26;100.00;100403.69;7304001;19;20497;-66
2023/12/27 08:16:52;;;;;;;;;;;;;;;12.28;100.00;100409.63;7306290;19;20022;-67
2023/12/27 08:19:20;;;;;;;;;;;;;;;12.31;100.00;100411.06;7292230;19;20002;-66
2023/12/27 08:21:48;;;;;;;;;;;;;;;12.32;100.00;100412.72;7299074;19;19921;-67
2023/12/27 08:24:17;;;;;;;;;;;;;;;12.35;100.00;100409.72;7310350;19;19933;-70
2023/12/27 08:26:44;;;;;;;;;;;;;;;12.37;100.00;100403.28;7293049;19;19955;-67
2023/12/27 08:29:12;;;;;;;;;;;;;;;12.40;100.00;100408.19;7301017;19;19923;-67
2023/12/27 08:31:43;;;;;;;;;;;;;;;12.44;100.00;100409.47;7312910;19;19915;-67
2023/12/27 08:34:12;;;;;;;;;;;;;;;12.46;100.00;100405.84;7298321;19;20708;-67
2023/12/27 08:36:44;;;;;;;;;;;;;;;12.49;100.00;100408.97;7299289;19;19910;-67
2023/12/27 08:39:12;;;;;;;;;;;;;;;12.52;100.00;100398.06;7306223;19;19915;-66
2023/12/27 08:41:40;;;;;;;;;;;;;;;12.52;100.00;100400.72;7302039;19;20311;-66
2023/12/27 08:44:07;;;;;;;;;;;;;;;12.54;100.00;100408.47;7290740;19;19929;-66
2023/12/27 08:46:34;;;;;;;;;;;;;;;12.56;100.00;100398.53;7306647;19;19919;-66
2023/12/27 08:49:01;;;;;;;;;;;;;;;12.61;100.00;100393.53;7293838;19;19917;-68
2023/12/27 08:51:32;;;;;;;;;;;;;;;12.64;100.00;100395.84;7290340;19;20300;-67
2023/12/27 08:54:07;;;;;;;;;;;;;;;12.63;100.00;100387.09;7284561;19;22461;-66
2023/12/27 08:56:34;;;;;;;;;;;;;;;12.65;100.00;100385.09;7298176;19;20471;-67
2023/12/27 08:59:01;;;;;;;;;;;;;;;12.67;100.00;100384.91;7287287;19;20774;-67
2023/12/27 09:01:28;;;;;;;;;;;;;;;12.68;100.00;100384.75;7288303;19;20894;-67
2023/12/27 09:03:56;;;;;;;;;;;;;;;12.71;100.00;100375.63;7297832;19;19959;-68
2023/12/27 09:06:25;;;;;;;;;;;;;;;12.72;100.00;100372.00;7292120;19;19918;-67
2023/12/27 09:08:52;;;;;;;;;;;;;;;12.75;100.00;100372.47;7295307;19;19915;-66
2023/12/27 09:11:23;;;;;;;;;;;;;;;12.77;100.00;100364.38;7286212;19;22192;-66
2023/12/27 09:14:07;;;;;;;;;;;;;;;12.77;100.00;100367.84;7291076;19;19970;-67
2023/12/27 09:16:34;;;;;;;;;;;;;;;12.77;100.00;100357.28;7293336;19;20709;-66
2023/12/27 09:19:02;;;;;;;;;;;;;;;12.79;100.00;100355.28;7291518;19;20251;-66
2023/12/27 09:21:31;;;;;;;;;;;;;;;12.79;100.00;100344.72;7306041;19;20380;-67
2023/12/27 09:24:05;;;;;;;;;;;;;;;12.82;100.00;100340.91;7294279;19;20003;-68
2023/12/27 09:26:34;;;;;;;;;;;;;;;12.85;100.00;100340.53;7315312;19;19926;-69
2023/12/27 09:29:02;;;;;;;;;;;;;;;12.90;100.00;100326.81;7306495;19;20373;-66
2023/12/27 09:31:30;;;;;;;;;;;;;;;12.85;100.00;100319.41;7283027;19;19922;-69
2023/12/27 09:34:03;;;;;;;;;;;;;;;12.84;100.00;100310.69;7288413;19;20524;-68
2023/12/27 09:36:32;;;;;;;;;;;;;;;12.84;100.00;100309.88;7287850;19;19926;-67
2023/12/27 09:38:59;;;;;;;;;;;;;;;12.88;100.00;100315.59;7291967;19;20848;-68
2023/12/27 09:41:26;;;;;;;;;;;;;;;12.86;100.00;100321.88;7294267;19;19929;-66
2023/12/27 09:43:55;;;;;;;;;;;;;;;12.87;100.00;100304.22;7303446;19;19955;-66
2023/12/27 09:46:24;;;;;;;;;;;;;;;12.89;100.00;100315.44;7298253;19;20254;-66
2023/12/27 09:48:52;;;;;;;;;;;;;;;12.91;100.00;100299.38;7294432;19;20743;-66
2023/12/27 09:51:24;;;;;;;;;;;;;;;12.95;100.00;100298.03;7300969;19;20739;-67
2023/12/27 09:53:53;;;;;;;;;;;;;;;12.98;100.00;100287.09;7298094;19;20862;-66
2023/12/27 09:56:23;;;;;;;;;;;;;;;12.95;100.00;100272.47;7295568;19;19975;-66
2023/12/27 09:58:54;;;;;;;;;;;;;;;12.99;100.00;100257.88;7290932;19;21194;-68
2023/12/27 10:01:23;;;;;;;;;;;;;;;13.04;100.00;100273.19;7296513;19;20621;-66
2023/12/27 10:04:06;;;;;;;;;;;;;;;13.02;100.00;100257.50;7294717;19;20296;-66
2023/12/27 10:06:47;;;;;;;;;;;;;;;13.06;100.00;100273.78;7285701;19;19918;-67
2023/12/27 10:09:15;;;;;;;;;;;;;;;13.04;100.00;100265.25;7311622;19;19978;-67
2023/12/27 10:11:43;;;;;;;;;;;;;;;13.07;100.00;100243.75;7287407;19;19930;-66
2023/12/27 10:14:11;;;;;;;;;;;;;;;13.09;100.00;100249.69;7293455;19;19978;-67
2023/12/27 10:16:39;;;;;;;;;;;;;;;13.08;100.00;100246.22;7293747;19;19929;-67
2023/12/27 10:19:07;;;;;;;;;;;;;;;13.08;100.00;100240.09;7288628;19;19950;-67
2023/12/27 10:21:42;;;;;;;;;;;;;;;13.09;100.00;100239.94;7309178;19;19919;-65
2023/12/27 10:24:12;;;;;;;;;;;;;;;13.10;100.00;100238.13;7289989;19;19925;-68
2023/12/27 10:26:39;;;;;;;;;;;;;;;13.08;100.00;100238.28;7293514;19;19911;-67
2023/12/27 10:29:07;;;;;;;;;;;;;;;13.10;100.00;100227.56;7292343;19;19915;-67
2023/12/27 10:31:39;;;;;;;;;;;;;;;13.09;100.00;100218.81;7300025;19;20470;-66
2023/12/27 10:34:08;;;;;;;;;;;;;;;13.05;100.00;100204.34;7287159;19;20320;-67
2023/12/27 10:36:38;;;;;;;;;;;;;;;13.06;100.00;100205.13;7298213;19;19918;-67
2023/12/27 10:39:06;;;;;;;;;;;;;;;13.05;100.00;100214.06;7287306;19;19998;-67
2023/12/27 10:41:37;;;;;;;;;;;;;;;13.09;100.00;100224.09;7304074;19;19927;-67
2023/12/27 10:44:06;;;;;;;;;;;;;;;13.08;100.00;100209.25;7281327;19;20005;-67
2023/12/27 10:46:37;;;;;;;;;;;;;;;13.06;100.00;100211.22;7290744;19;19925;-68
2023/12/27 10:49:05;;;;;;;;;;;;;;;13.03;100.00;100201.03;7293829;19;21399;-67
2023/12/27 10:51:51;;;;;;;;;;;;;;;13.04;100.00;100202.69;7295838;19;20404;-68
2023/12/27 10:54:21;;;;;;;;;;;;;;;13.03;100.00;100197.59;7292263;19;19927;-66
2023/12/27 10:56:51;;;;;;;;;;;;;;;13.07;100.00;100199.66;7304193;19;19915;-67
2023/12/27 10:59:18;;;;;;;;;;;;;;;13.11;100.00;100173.69;7289960;19;20238;-66
2023/12/27 11:01:50;;;;;;;;;;;;;;;13.06;100.00;100179.53;7299543;19;20539;-68
2023/12/27 11:04:17;;;;;;;;;;;;;;;13.03;100.00;100150.88;7288245;19;19919;-66
2023/12/27 11:06:45;;;;;;;;;;;;;;;13.09;100.00;100147.50;7289581;19;20074;-67
2023/12/27 11:09:13;;;;;;;;;;;;;;;13.12;99.71;100149.78;7296853;19;19941;-66
2023/12/27 11:11:40;;;;;;;;;;;;;;;13.09;98.88;100149.31;7284400;19;20695;-66
2023/12/27 11:14:11;;;;;;;;;;;;;;;13.14;99.38;100147.78;7290541;19;19918;-66
2023/12/27 11:16:40;;;;;;;;;;;;;;;13.16;99.44;100135.19;7312823;19;19930;-67
2023/12/27 11:19:08;;;;;;;;;;;;;;;13.16;99.06;100131.72;7296695;19;20941;-66
2023/12/27 11:21:42;;;;;;;;;;;;;;;13.17;99.30;100130.72;7304261;19;20414;-66
2023/12/27 11:24:12;;;;;;;;;;;;;;;13.17;99.92;100118.34;7305610;19;19923;-67
2023/12/27 11:26:42;;;;;;;;;;;;;;;13.22;100.00;100115.13;7298107;19;22166;-67
2023/12/27 11:29:14;;;;;;;;;;;;;;;13.19;100.00;100112.88;7298283;19;19931;-66
2023/12/27 11:31:47;;;;;;;;;;;;;;;13.17;100.00;100106.94;7286620;19;21586;-66
2023/12/27 11:34:17;;;;;;;;;;;;;;;13.16;100.00;100090.28;7295471;19;20038;-66
2023/12/27 11:36:46;;;;;;;;;;;;;;;13.19;100.00;100084.63;7293230;19;19919;-67
2023/12/27 11:39:20;;;;;;;;;;;;;;;13.16;100.00;100085.00;7291483;19;20389;-67
2023/12/27 11:41:51;;;;;;;;;;;;;;;13.18;100.00;100082.19;7300293;19;19919;-66
2023/12/27 11:44:20;;;;;;;;;;;;;;;13.15;100.00;100085.22;7317065;19;20582;-66
2023/12/27 11:46:47;;;;;;;;;;;;;;;13.16;100.00;100076.25;7295195;19;21460;-66
2023/12/27 11:49:18;;;;;;;;;;;;;;;13.15;100.00;100072.81;7288445;19;20982;-66
2023/12/27 11:51:46;;;;;;;;;;;;;;;13.16;100.00;100065.69;7305634;19;19915;-67
2023/12/27 11:54:23;;;;;;;;;;;;;;;13.12;100.00;100083.75;7292977;19;21321;-66
2023/12/27 11:56:53;;;;;;;;;;;;;;;13.11;100.00;100068.91;7274975;19;19942;-66
2023/12/27 11:59:22;;;;;;;;;;;;;;;13.09;100.00;100065.63;7281515;19;19930;-67
2023/12/27 12:01:49;;;;;;;;;;;;;;;13.08;100.00;100058.69;7281062;19;20646;-66
2023/12/27 12:04:19;;;;;;;;;;;;;;;13.08;100.00;100055.22;7287658;19;19919;-67
2023/12/27 12:06:55;;;;;;;;;;;;;;;13.07;100.00;100059.69;7289322;19;19974;-68
2023/12/27 12:09:36;;;;;;;;;;;;;;;13.07;100.00;100025.34;7288559;19;19922;-66
2023/12/27 12:12:24;;;;;;;;;;;;;;;13.06;100.00;100013.16;7302757;19;19943;-66
2023/12/27 12:14:54;;;;;;;;;;;;;;;13.04;100.00;100020.47;7303301;19;19948;-66
2023/12/27 12:17:23;;;;;;;;;;;;;;;13.05;100.00;100010.72;7294280;19;20665;-67
2023/12/27 12:19:51;;;;;;;;;;;;;;;13.06;100.00;99999.13;7290825;19;19919;-67
2023/12/27 12:22:19;;;;;;;;;;;;;;;13.07;100.00;99993.66;7294712;19;19919;-66
2023/12/27 12:24:46;;;;;;;;;;;;;;;13.11;100.00;100005.50;7293002;19;19926;-66
2023/12/27 12:27:14;;;;;;;;;;;;;;;13.09;100.00;99983.72;7298492;19;19922;-66
2023/12/27 12:29:41;;;;;;;;;;;;;;;13.08;100.00;99979.44;7291766;19;20308;-66
2023/12/27 12:32:08;;;;;;;;;;;;;;;13.13;99.47;99969.16;7292348;19;20075;-67
2023/12/27 12:34:40;;;;;;;;;;;;;;;13.16;98.92;99966.13;7298045;19;20719;-67
2023/12/27 12:37:08;;;;;;;;;;;;;;;13.18;99.34;99950.91;7301901;19;19914;-67